Pagrindinis puslapis
METAR-TAF:

METAR-TAF

Oro uostai :

Kittilä, Suomija

platuma: 67-42N, ilguma: 024-51E, Aukštis: 196 m

Dabartinis oras

Ataskaita buvo paskelbta 23 minutes, ne 08:50 UTC
Vėjas 5 kt iš Vakarų/Šiaurės Vakarų, svyruoja nuo Pietvakarių ir Šiaurės
Temperatūra 16°C
Drėgmė 48%
Slėgis 1030 hPa
Matomumas 10 km arba daugiau
nėra debesų žemiau 1500 m ir nėra kamuolinių lietaus debesų

METAR: EFKT 310850Z AUTO 29005KT 230V350 CAVOK 16/05 Q1030

Laikas: 12:13 (09:13 UTC)


TAF: trūkstamas

Orai ataskaitas ir orų prognozės (METAR, TAF).

turimą stotys yra geltonos ir raudonos taškus žemėlapyje.

Perkelti pele per norėdami pamatyti stoties vardą.

Tada spustelėkite, norėdami matyti oro stebėjimo ir prognozės.

Norėdami pakeisti žemėlapį: spustelėkite ant žalios mygtukų su juodo kryžiaus žemyn,; žalią mygtuką su brūkšneliu, jei norite nutolinti; arba žalių rodyklių gretimoms žemėlapius.


METAR-TAF: